createdAt,value
2022-08-18T00:08:20.130Z,23.13
2022-08-18T00:18:49.113Z,23.11
2022-08-18T00:29:17.874Z,23.09
2022-08-18T00:39:47.955Z,23.04
2022-08-18T00:50:20.824Z,22.86
2022-08-18T01:00:51.768Z,22.71
2022-08-18T01:11:20.903Z,22.51
2022-08-18T01:21:54.363Z,22.59
2022-08-18T01:32:25.364Z,22.59
2022-08-18T01:42:54.228Z,22.39
2022-08-18T01:53:23.216Z,22.33
2022-08-18T02:04:02.559Z,22.25
2022-08-18T02:14:44.544Z,22.24
2022-08-18T02:25:15.972Z,22.15
2022-08-18T02:35:46.606Z,22.06
2022-08-18T02:46:15.608Z,21.91
2022-08-18T02:56:46.009Z,21.81
2022-08-18T03:07:16.027Z,21.63
2022-08-18T03:17:45.182Z,21.46
2022-08-18T03:28:14.084Z,21.58
2022-08-18T03:38:44.255Z,21.60
2022-08-18T03:49:17.399Z,21.48
2022-08-18T03:59:46.594Z,21.33
2022-08-18T04:10:19.725Z,21.27
2022-08-18T04:20:59.064Z,21.31
2022-08-18T04:31:29.949Z,21.29
2022-08-18T04:41:59.741Z,21.23
2022-08-18T04:52:45.730Z,21.33
2022-08-18T05:03:15.423Z,21.41
2022-08-18T05:13:44.561Z,21.56
2022-08-18T05:24:13.796Z,21.99
2022-08-18T05:34:42.939Z,22.69
2022-08-18T05:45:25.009Z,23.40
2022-08-18T05:56:19.824Z,24.18
2022-08-18T06:06:50.177Z,24.89
2022-08-18T06:17:46.705Z,25.44
2022-08-18T06:28:18.711Z,25.83
2022-08-18T06:39:02.438Z,26.30
2022-08-18T06:49:43.852Z,26.81
2022-08-18T07:00:24.869Z,27.30
2022-08-18T07:10:55.038Z,27.69
2022-08-18T07:21:32.055Z,28.19
2022-08-18T07:32:05.888Z,28.40
2022-08-18T07:43:00.692Z,28.43
2022-08-18T07:53:42.242Z,28.35
2022-08-18T08:04:25.442Z,28.25
2022-08-18T08:15:18.061Z,28.15
2022-08-18T08:26:25.670Z,28.28
2022-08-18T08:37:02.070Z,28.53
2022-08-18T08:47:37.190Z,28.71
2022-08-18T08:58:21.044Z,28.82
2022-08-18T09:09:12.565Z,28.88
2022-08-18T09:19:59.285Z,29.00
2022-08-18T09:30:54.149Z,28.98
2022-08-18T09:41:34.929Z,28.95
2022-08-18T09:52:24.455Z,28.95
2022-08-18T10:03:25.434Z,29.10
2022-08-18T10:14:10.076Z,29.09
2022-08-18T10:24:46.586Z,29.08
2022-08-18T10:35:52.965Z,29.24
2022-08-18T10:46:27.749Z,29.36
2022-08-18T10:57:14.742Z,29.37
2022-08-18T11:07:52.087Z,29.38
2022-08-18T11:18:42.573Z,29.39
2022-08-18T11:29:41.484Z,29.48
2022-08-18T11:41:02.021Z,29.62
2022-08-18T11:51:23.703Z,29.67
2022-08-18T12:01:54.969Z,29.81
2022-08-18T12:12:28.552Z,29.94
2022-08-18T12:22:59.404Z,30.12
2022-08-18T12:44:18.533Z,30.24
2022-08-18T13:05:39.990Z,30.29
2022-08-18T13:16:10.626Z,30.30
2022-08-18T13:26:48.685Z,30.26
2022-08-18T13:37:17.767Z,30.21
2022-08-18T13:47:52.125Z,30.34
2022-08-18T13:58:22.057Z,30.38
2022-08-18T14:08:51.310Z,30.33
2022-08-18T14:19:37.362Z,30.24
2022-08-18T14:30:13.744Z,30.23
2022-08-18T14:40:44.856Z,30.14
2022-08-18T14:51:14.145Z,30.04
2022-08-18T15:01:43.441Z,29.99
2022-08-18T15:12:17.716Z,29.99
2022-08-18T15:23:05.114Z,30.00
2022-08-18T15:33:36.201Z,29.99
2022-08-18T15:44:06.770Z,29.99
2022-08-18T15:54:37.532Z,29.94
2022-08-18T16:05:14.030Z,29.88
2022-08-18T16:15:47.034Z,29.81
2022-08-18T16:36:47.014Z,29.58
2022-08-18T16:47:18.641Z,29.50
2022-08-18T16:58:05.017Z,29.42
2022-08-18T17:08:34.479Z,29.30
2022-08-18T17:19:08.480Z,29.14
2022-08-18T17:29:45.939Z,28.98
2022-08-18T17:40:22.252Z,28.85
2022-08-18T17:51:14.711Z,28.74
2022-08-18T18:01:44.201Z,28.57
2022-08-18T18:12:23.916Z,28.39
2022-08-18T18:22:53.286Z,28.28
2022-08-18T18:33:23.296Z,28.14
2022-08-18T18:44:05.845Z,27.95
2022-08-18T18:54:49.759Z,27.90
2022-08-18T19:05:29.179Z,27.69
2022-08-18T19:16:02.503Z,27.53
2022-08-18T19:26:39.063Z,27.35
2022-08-18T19:37:27.540Z,27.23
2022-08-18T19:48:09.055Z,27.14
2022-08-18T19:59:15.108Z,27.05
2022-08-18T20:10:06.507Z,26.96
2022-08-18T20:20:38.368Z,26.84
2022-08-18T20:31:15.441Z,26.64
2022-08-18T20:41:50.963Z,26.44
2022-08-18T20:52:29.098Z,26.42
2022-08-18T21:03:01.112Z,26.27
2022-08-18T21:13:40.867Z,26.03
2022-08-18T21:24:20.158Z,25.98
2022-08-18T21:34:49.680Z,25.95
2022-08-18T21:45:22.267Z,25.90
2022-08-18T21:55:52.794Z,25.85
2022-08-18T22:06:30.247Z,25.72
2022-08-18T22:17:33.106Z,25.59
2022-08-18T22:28:03.359Z,25.47
2022-08-18T22:38:32.968Z,25.41
2022-08-18T22:49:03.199Z,25.35
2022-08-18T22:59:32.810Z,25.28
2022-08-18T23:10:03.536Z,25.30
2022-08-18T23:20:37.769Z,25.36
2022-08-18T23:31:11.243Z,25.27
2022-08-18T23:41:41.277Z,25.14
2022-08-18T23:52:10.599Z,25.01
